sensor_id;sensor_type;location;lat;lon;timestamp;P1;durP1;ratioP1;P2;durP2;ratioP2
17866;SDS011;9059;49.934;8.650;2023-04-24T00:00:47;1.92;;;0.60;;
17866;SDS011;9059;49.934;8.650;2023-04-24T00:01:50;1.50;;;0.55;;
17866;SDS011;9059;49.934;8.650;2023-04-24T00:02:53;2.55;;;0.35;;
17866;SDS011;9059;49.934;8.650;2023-04-24T00:03:59;1.52;;;0.60;;
17866;SDS011;9059;49.934;8.650;2023-04-24T00:05:01;1.77;;;0.50;;
17866;SDS011;9059;49.934;8.650;2023-04-24T00:06:04;1.63;;;0.50;;
17866;SDS011;9059;49.934;8.650;2023-04-24T00:07:09;1.50;;;0.43;;
17866;SDS011;9059;49.934;8.650;2023-04-24T00:08:12;2.08;;;0.65;;
17866;SDS011;9059;49.934;8.650;2023-04-24T00:09:13;1.63;;;0.50;;
17866;SDS011;9059;49.934;8.650;2023-04-24T00:10:16;1.30;;;0.40;;
17866;SDS011;9059;49.934;8.650;2023-04-24T00:11:18;5.22;;;0.70;;
17866;SDS011;9059;49.934;8.650;2023-04-24T00:12:21;2.15;;;0.47;;
17866;SDS011;9059;49.934;8.650;2023-04-24T00:13:23;1.77;;;0.57;;
17866;SDS011;9059;49.934;8.650;2023-04-24T00:14:26;1.70;;;0.52;;
17866;SDS011;9059;49.934;8.650;2023-04-24T00:15:27;1.70;;;0.47;;
17866;SDS011;9059;49.934;8.650;2023-04-24T00:16:30;0.50;;;0.40;;
17866;SDS011;9059;49.934;8.650;2023-04-24T00:17:32;3.20;;;0.60;;
17866;SDS011;9059;49.934;8.650;2023-04-24T00:18:40;1.02;;;0.50;;
17866;SDS011;9059;49.934;8.650;2023-04-24T00:19:42;3.45;;;0.43;;
17866;SDS011;9059;49.934;8.650;2023-04-24T00:20:45;2.10;;;0.63;;
17866;SDS011;9059;49.934;8.650;2023-04-24T00:21:47;1.77;;;0.43;;
17866;SDS011;9059;49.934;8.650;2023-04-24T00:22:53;5.53;;;0.60;;
17866;SDS011;9059;49.934;8.650;2023-04-24T00:23:54;1.40;;;0.60;;
17866;SDS011;9059;49.934;8.650;2023-04-24T00:24:59;1.92;;;0.40;;
17866;SDS011;9059;49.934;8.650;2023-04-24T00:26:01;1.38;;;0.47;;
17866;SDS011;9059;49.934;8.650;2023-04-24T00:27:04;1.38;;;0.50;;
17866;SDS011;9059;49.934;8.650;2023-04-24T00:28:06;0.90;;;0.50;;
17866;SDS011;9059;49.934;8.650;2023-04-24T00:29:08;0.50;;;0.40;;
17866;SDS011;9059;49.934;8.650;2023-04-24T00:30:10;3.45;;;0.47;;
17866;SDS011;9059;49.934;8.650;2023-04-24T00:31:13;6.10;;;0.50;;
17866;SDS011;9059;49.934;8.650;2023-04-24T00:32:15;3.33;;;0.75;;
17866;SDS011;9059;49.934;8.650;2023-04-24T00:33:19;0.70;;;0.40;;
17866;SDS011;9059;49.934;8.650;2023-04-24T00:34:21;1.27;;;0.40;;
17866;SDS011;9059;49.934;8.650;2023-04-24T00:35:24;2.85;;;0.50;;
17866;SDS011;9059;49.934;8.650;2023-04-24T00:36:25;0.85;;;0.57;;
17866;SDS011;9059;49.934;8.650;2023-04-24T00:37:28;2.85;;;0.45;;
17866;SDS011;9059;49.934;8.650;2023-04-24T00:38:31;1.33;;;0.40;;
17866;SDS011;9059;49.934;8.650;2023-04-24T00:39:34;1.98;;;0.40;;
17866;SDS011;9059;49.934;8.650;2023-04-24T00:40:36;1.00;;;0.57;;
17866;SDS011;9059;49.934;8.650;2023-04-24T00:41:39;1.02;;;0.40;;
17866;SDS011;9059;49.934;8.650;2023-04-24T00:42:40;1.67;;;0.40;;
17866;SDS011;9059;49.934;8.650;2023-04-24T00:43:43;3.17;;;0.52;;
17866;SDS011;9059;49.934;8.650;2023-04-24T00:44:45;0.82;;;0.40;;
17866;SDS011;9059;49.934;8.650;2023-04-24T00:45:48;3.90;;;0.50;;
17866;SDS011;9059;49.934;8.650;2023-04-24T00:46:50;0.50;;;0.30;;
17866;SDS011;9059;49.934;8.650;2023-04-24T00:47:55;3.70;;;0.60;;
17866;SDS011;9059;49.934;8.650;2023-04-24T00:48:58;1.75;;;0.60;;
17866;SDS011;9059;49.934;8.650;2023-04-24T00:50:01;2.45;;;0.47;;
17866;SDS011;9059;49.934;8.650;2023-04-24T00:51:05;0.65;;;0.40;;
17866;SDS011;9059;49.934;8.650;2023-04-24T00:52:08;1.42;;;0.50;;
17866;SDS011;9059;49.934;8.650;2023-04-24T00:53:10;0.95;;;0.55;;
17866;SDS011;9059;49.934;8.650;2023-04-24T00:54:14;4.30;;;0.70;;
17866;SDS011;9059;49.934;8.650;2023-04-24T00:55:16;6.03;;;0.50;;
17866;SDS011;9059;49.934;8.650;2023-04-24T00:56:19;2.28;;;0.57;;
17866;SDS011;9059;49.934;8.650;2023-04-24T00:57:21;0.50;;;0.35;;
17866;SDS011;9059;49.934;8.650;2023-04-24T00:58:25;1.80;;;0.47;;
17866;SDS011;9059;49.934;8.650;2023-04-24T00:59:27;1.52;;;0.60;;
17866;SDS011;9059;49.934;8.650;2023-04-24T01:00:29;1.77;;;0.55;;
17866;SDS011;9059;49.934;8.650;2023-04-24T01:01:32;1.23;;;0.50;;
17866;SDS011;9059;49.934;8.650;2023-04-24T01:02:35;4.97;;;0.50;;
17866;SDS011;9059;49.934;8.650;2023-04-24T01:03:36;1.25;;;0.50;;
17866;SDS011;9059;49.934;8.650;2023-04-24T01:04:40;1.30;;;0.57;;
17866;SDS011;9059;49.934;8.650;2023-04-24T01:05:42;2.15;;;0.50;;
17866;SDS011;9059;49.934;8.650;2023-04-24T01:06:45;3.72;;;0.93;;
17866;SDS011;9059;49.934;8.650;2023-04-24T01:07:46;3.60;;;0.45;;
17866;SDS011;9059;49.934;8.650;2023-04-24T01:08:50;1.35;;;0.40;;
17866;SDS011;9059;49.934;8.650;2023-04-24T01:09:53;1.65;;;0.75;;
17866;SDS011;9059;49.934;8.650;2023-04-24T01:10:56;1.90;;;0.55;;
17866;SDS011;9059;49.934;8.650;2023-04-24T01:11:58;1.70;;;0.50;;
17866;SDS011;9059;49.934;8.650;2023-04-24T01:13:01;1.48;;;0.60;;
17866;SDS011;9059;49.934;8.650;2023-04-24T01:14:03;2.20;;;0.40;;
17866;SDS011;9059;49.934;8.650;2023-04-24T01:15:07;1.48;;;0.40;;
17866;SDS011;9059;49.934;8.650;2023-04-24T01:16:09;1.75;;;0.32;;
17866;SDS011;9059;49.934;8.650;2023-04-24T01:17:12;2.88;;;0.60;;
17866;SDS011;9059;49.934;8.650;2023-04-24T01:18:14;2.83;;;0.73;;
17866;SDS011;9059;49.934;8.650;2023-04-24T01:19:17;1.98;;;0.70;;
17866;SDS011;9059;49.934;8.650;2023-04-24T01:20:20;1.55;;;0.47;;
17866;SDS011;9059;49.934;8.650;2023-04-24T01:21:23;1.95;;;0.50;;
17866;SDS011;9059;49.934;8.650;2023-04-24T01:22:30;3.30;;;0.68;;
17866;SDS011;9059;49.934;8.650;2023-04-24T01:23:32;2.00;;;0.50;;
17866;SDS011;9059;49.934;8.650;2023-04-24T01:24:34;0.52;;;0.38;;
17866;SDS011;9059;49.934;8.650;2023-04-24T01:25:37;0.68;;;0.50;;
17866;SDS011;9059;49.934;8.650;2023-04-24T01:26:39;3.10;;;0.70;;
17866;SDS011;9059;49.934;8.650;2023-04-24T01:27:42;2.10;;;0.40;;
17866;SDS011;9059;49.934;8.650;2023-04-24T01:28:44;1.23;;;0.60;;
17866;SDS011;9059;49.934;8.650;2023-04-24T01:29:46;1.20;;;0.60;;
17866;SDS011;9059;49.934;8.650;2023-04-24T01:30:50;2.90;;;0.57;;
17866;SDS011;9059;49.934;8.650;2023-04-24T01:31:53;2.50;;;0.60;;
17866;SDS011;9059;49.934;8.650;2023-04-24T01:32:56;2.38;;;0.80;;
17866;SDS011;9059;49.934;8.650;2023-04-24T01:33:59;4.13;;;0.50;;
17866;SDS011;9059;49.934;8.650;2023-04-24T01:35:01;0.85;;;0.50;;
17866;SDS011;9059;49.934;8.650;2023-04-24T01:36:05;2.30;;;0.45;;
17866;SDS011;9059;49.934;8.650;2023-04-24T01:37:07;1.08;;;0.40;;
17866;SDS011;9059;49.934;8.650;2023-04-24T01:38:11;2.47;;;0.60;;
17866;SDS011;9059;49.934;8.650;2023-04-24T01:39:13;3.58;;;0.40;;
17866;SDS011;9059;49.934;8.650;2023-04-24T01:40:16;7.00;;;0.68;;
17866;SDS011;9059;49.934;8.650;2023-04-24T01:41:18;1.65;;;0.50;;
17866;SDS011;9059;49.934;8.650;2023-04-24T01:42:21;2.30;;;0.40;;
17866;SDS011;9059;49.934;8.650;2023-04-24T01:43:23;0.95;;;0.40;;
17866;SDS011;9059;49.934;8.650;2023-04-24T01:44:26;1.95;;;0.43;;
17866;SDS011;9059;49.934;8.650;2023-04-24T01:45:28;1.77;;;0.63;;
17866;SDS011;9059;49.934;8.650;2023-04-24T01:46:30;2.03;;;0.60;;
17866;SDS011;9059;49.934;8.650;2023-04-24T01:47:32;2.38;;;0.45;;
17866;SDS011;9059;49.934;8.650;2023-04-24T01:48:35;3.47;;;0.50;;
17866;SDS011;9059;49.934;8.650;2023-04-24T01:49:37;1.65;;;0.50;;
17866;SDS011;9059;49.934;8.650;2023-04-24T01:50:40;0.65;;;0.43;;
17866;SDS011;9059;49.934;8.650;2023-04-24T01:51:42;1.02;;;0.57;;
17866;SDS011;9059;49.934;8.650;2023-04-24T01:52:45;4.13;;;0.65;;
17866;SDS011;9059;49.934;8.650;2023-04-24T01:53:48;1.15;;;0.50;;
17866;SDS011;9059;49.934;8.650;2023-04-24T01:54:51;1.70;;;0.73;;
17866;SDS011;9059;49.934;8.650;2023-04-24T01:55:53;1.45;;;0.50;;
17866;SDS011;9059;49.934;8.650;2023-04-24T01:56:56;0.75;;;0.50;;
17866;SDS011;9059;49.934;8.650;2023-04-24T01:57:58;5.10;;;0.57;;
17866;SDS011;9059;49.934;8.650;2023-04-24T01:59:02;0.40;;;0.35;;
17866;SDS011;9059;49.934;8.650;2023-04-24T02:00:05;0.70;;;0.50;;
17866;SDS011;9059;49.934;8.650;2023-04-24T02:01:08;2.10;;;0.40;;
17866;SDS011;9059;49.934;8.650;2023-04-24T02:02:10;0.68;;;0.40;;
17866;SDS011;9059;49.934;8.650;2023-04-24T02:03:13;2.22;;;0.50;;
17866;SDS011;9059;49.934;8.650;2023-04-24T02:04:15;0.82;;;0.45;;
17866;SDS011;9059;49.934;8.650;2023-04-24T02:05:18;1.02;;;0.40;;
17866;SDS011;9059;49.934;8.650;2023-04-24T02:06:20;3.10;;;0.40;;
17866;SDS011;9059;49.934;8.650;2023-04-24T02:07:23;2.28;;;0.47;;
17866;SDS011;9059;49.934;8.650;2023-04-24T02:08:25;0.77;;;0.35;;
17866;SDS011;9059;49.934;8.650;2023-04-24T02:09:29;2.05;;;0.57;;
17866;SDS011;9059;49.934;8.650;2023-04-24T02:10:31;0.88;;;0.43;;
17866;SDS011;9059;49.934;8.650;2023-04-24T02:11:33;1.48;;;0.60;;
17866;SDS011;9059;49.934;8.650;2023-04-24T02:12:35;0.47;;;0.32;;
17866;SDS011;9059;49.934;8.650;2023-04-24T02:13:38;1.25;;;0.50;;
17866;SDS011;9059;49.934;8.650;2023-04-24T02:14:40;1.00;;;0.50;;
17866;SDS011;9059;49.934;8.650;2023-04-24T02:15:43;1.02;;;0.50;;
17866;SDS011;9059;49.934;8.650;2023-04-24T02:16:45;0.88;;;0.50;;
17866;SDS011;9059;49.934;8.650;2023-04-24T02:17:48;1.02;;;0.35;;
17866;SDS011;9059;49.934;8.650;2023-04-24T02:18:49;1.27;;;0.70;;
17866;SDS011;9059;49.934;8.650;2023-04-24T02:19:52;1.98;;;0.70;;
17866;SDS011;9059;49.934;8.650;2023-04-24T02:20:54;2.17;;;0.55;;
17866;SDS011;9059;49.934;8.650;2023-04-24T02:21:57;1.83;;;0.60;;
17866;SDS011;9059;49.934;8.650;2023-04-24T02:22:59;1.52;;;0.40;;
17866;SDS011;9059;49.934;8.650;2023-04-24T02:24:02;1.90;;;0.45;;
17866;SDS011;9059;49.934;8.650;2023-04-24T02:25:05;5.82;;;0.70;;
17866;SDS011;9059;49.934;8.650;2023-04-24T02:26:09;4.50;;;0.60;;
17866;SDS011;9059;49.934;8.650;2023-04-24T02:27:11;0.93;;;0.52;;
17866;SDS011;9059;49.934;8.650;2023-04-24T02:28:14;2.50;;;0.65;;
17866;SDS011;9059;49.934;8.650;2023-04-24T02:29:16;0.80;;;0.50;;
17866;SDS011;9059;49.934;8.650;2023-04-24T02:30:19;2.17;;;0.70;;
17866;SDS011;9059;49.934;8.650;2023-04-24T02:31:21;1.27;;;0.65;;
17866;SDS011;9059;49.934;8.650;2023-04-24T02:32:24;2.10;;;0.50;;
17866;SDS011;9059;49.934;8.650;2023-04-24T02:33:25;2.35;;;0.50;;
17866;SDS011;9059;49.934;8.650;2023-04-24T02:34:28;2.10;;;0.30;;
17866;SDS011;9059;49.934;8.650;2023-04-24T02:35:30;0.95;;;0.50;;
17866;SDS011;9059;49.934;8.650;2023-04-24T02:36:33;3.88;;;0.60;;
17866;SDS011;9059;49.934;8.650;2023-04-24T02:37:34;2.58;;;0.50;;
17866;SDS011;9059;49.934;8.650;2023-04-24T02:38:37;0.73;;;0.50;;
17866;SDS011;9059;49.934;8.650;2023-04-24T02:39:39;1.38;;;0.63;;
17866;SDS011;9059;49.934;8.650;2023-04-24T02:40:43;1.80;;;0.57;;
17866;SDS011;9059;49.934;8.650;2023-04-24T02:41:45;2.53;;;0.70;;
17866;SDS011;9059;49.934;8.650;2023-04-24T02:42:48;2.55;;;0.40;;
17866;SDS011;9059;49.934;8.650;2023-04-24T02:43:50;1.67;;;0.50;;
17866;SDS011;9059;49.934;8.650;2023-04-24T02:44:52;4.53;;;0.70;;
17866;SDS011;9059;49.934;8.650;2023-04-24T02:45:55;3.45;;;0.60;;
17866;SDS011;9059;49.934;8.650;2023-04-24T02:46:57;5.50;;;0.82;;
17866;SDS011;9059;49.934;8.650;2023-04-24T02:47:59;2.97;;;0.60;;
17866;SDS011;9059;49.934;8.650;2023-04-24T02:49:01;3.15;;;0.75;;
17866;SDS011;9059;49.934;8.650;2023-04-24T02:50:05;6.25;;;0.80;;
17866;SDS011;9059;49.934;8.650;2023-04-24T02:51:07;1.50;;;0.57;;
17866;SDS011;9059;49.934;8.650;2023-04-24T02:52:11;1.13;;;0.50;;
17866;SDS011;9059;49.934;8.650;2023-04-24T02:53:12;1.63;;;0.52;;
17866;SDS011;9059;49.934;8.650;2023-04-24T02:54:15;2.85;;;0.73;;
17866;SDS011;9059;49.934;8.650;2023-04-24T02:55:17;1.90;;;0.40;;
17866;SDS011;9059;49.934;8.650;2023-04-24T02:56:21;1.90;;;0.60;;
17866;SDS011;9059;49.934;8.650;2023-04-24T02:57:23;1.08;;;0.50;;
17866;SDS011;9059;49.934;8.650;2023-04-24T02:58:26;1.25;;;0.75;;
17866;SDS011;9059;49.934;8.650;2023-04-24T02:59:27;3.17;;;0.70;;
17866;SDS011;9059;49.934;8.650;2023-04-24T03:00:30;1.45;;;0.65;;
17866;SDS011;9059;49.934;8.650;2023-04-24T03:01:32;1.52;;;0.57;;
17866;SDS011;9059;49.934;8.650;2023-04-24T03:02:35;6.53;;;0.70;;
17866;SDS011;9059;49.934;8.650;2023-04-24T03:03:37;1.02;;;0.60;;
17866;SDS011;9059;49.934;8.650;2023-04-24T03:04:40;1.35;;;0.50;;
17866;SDS011;9059;49.934;8.650;2023-04-24T03:05:44;2.58;;;0.88;;
17866;SDS011;9059;49.934;8.650;2023-04-24T03:06:47;1.25;;;0.70;;
17866;SDS011;9059;49.934;8.650;2023-04-24T03:07:49;2.35;;;0.70;;
17866;SDS011;9059;49.934;8.650;2023-04-24T03:08:53;2.50;;;0.60;;
17866;SDS011;9059;49.934;8.650;2023-04-24T03:09:55;1.98;;;0.70;;
17866;SDS011;9059;49.934;8.650;2023-04-24T03:10:59;1.27;;;0.60;;
17866;SDS011;9059;49.934;8.650;2023-04-24T03:12:02;4.28;;;0.93;;
17866;SDS011;9059;49.934;8.650;2023-04-24T03:13:05;2.30;;;0.57;;
17866;SDS011;9059;49.934;8.650;2023-04-24T03:14:06;5.43;;;0.98;;
17866;SDS011;9059;49.934;8.650;2023-04-24T03:15:09;1.38;;;0.65;;
17866;SDS011;9059;49.934;8.650;2023-04-24T03:16:11;1.48;;;0.68;;
17866;SDS011;9059;49.934;8.650;2023-04-24T03:17:14;6.00;;;0.65;;
17866;SDS011;9059;49.934;8.650;2023-04-24T03:18:16;1.83;;;0.80;;
17866;SDS011;9059;49.934;8.650;2023-04-24T03:19:19;3.17;;;0.80;;
17866;SDS011;9059;49.934;8.650;2023-04-24T03:20:20;1.90;;;0.80;;
17866;SDS011;9059;49.934;8.650;2023-04-24T03:21:23;3.92;;;1.10;;
17866;SDS011;9059;49.934;8.650;2023-04-24T03:22:25;1.45;;;0.60;;
17866;SDS011;9059;49.934;8.650;2023-04-24T03:23:28;2.42;;;0.50;;
17866;SDS011;9059;49.934;8.650;2023-04-24T03:24:30;0.82;;;0.60;;
17866;SDS011;9059;49.934;8.650;2023-04-24T03:25:32;3.85;;;0.55;;
17866;SDS011;9059;49.934;8.650;2023-04-24T03:26:34;1.15;;;0.50;;
17866;SDS011;9059;49.934;8.650;2023-04-24T03:27:38;3.88;;;0.50;;
17866;SDS011;9059;49.934;8.650;2023-04-24T03:28:40;1.23;;;0.50;;
17866;SDS011;9059;49.934;8.650;2023-04-24T03:29:43;2.58;;;0.68;;
17866;SDS011;9059;49.934;8.650;2023-04-24T03:30:46;2.35;;;0.50;;
17866;SDS011;9059;49.934;8.650;2023-04-24T03:31:49;2.63;;;0.55;;
17866;SDS011;9059;49.934;8.650;2023-04-24T03:32:51;2.40;;;0.50;;
17866;SDS011;9059;49.934;8.650;2023-04-24T03:33:53;0.52;;;0.40;;
17866;SDS011;9059;49.934;8.650;2023-04-24T03:34:55;0.55;;;0.30;;
17866;SDS011;9059;49.934;8.650;2023-04-24T03:35:58;2.88;;;0.55;;
17866;SDS011;9059;49.934;8.650;2023-04-24T03:37:00;2.35;;;0.50;;
17866;SDS011;9059;49.934;8.650;2023-04-24T03:38:02;1.67;;;0.60;;
17866;SDS011;9059;49.934;8.650;2023-04-24T03:39:05;0.60;;;0.40;;
17866;SDS011;9059;49.934;8.650;2023-04-24T03:40:08;1.58;;;0.60;;
17866;SDS011;9059;49.934;8.650;2023-04-24T03:41:10;1.05;;;0.45;;
17866;SDS011;9059;49.934;8.650;2023-04-24T03:42:14;3.50;;;0.68;;
17866;SDS011;9059;49.934;8.650;2023-04-24T03:43:17;2.60;;;0.50;;
17866;SDS011;9059;49.934;8.650;2023-04-24T03:44:20;1.73;;;0.60;;
17866;SDS011;9059;49.934;8.650;2023-04-24T03:45:22;3.00;;;0.63;;
17866;SDS011;9059;49.934;8.650;2023-04-24T03:46:25;3.55;;;0.70;;
17866;SDS011;9059;49.934;8.650;2023-04-24T03:47:27;0.98;;;0.60;;
17866;SDS011;9059;49.934;8.650;2023-04-24T03:48:30;2.58;;;0.50;;
17866;SDS011;9059;49.934;8.650;2023-04-24T03:49:31;1.02;;;0.50;;
17866;SDS011;9059;49.934;8.650;2023-04-24T03:50:34;1.95;;;0.60;;
17866;SDS011;9059;49.934;8.650;2023-04-24T03:51:36;1.08;;;0.57;;
17866;SDS011;9059;49.934;8.650;2023-04-24T03:52:38;2.50;;;0.80;;
17866;SDS011;9059;49.934;8.650;2023-04-24T03:53:40;0.68;;;0.50;;
17866;SDS011;9059;49.934;8.650;2023-04-24T03:54:43;1.85;;;0.52;;
17866;SDS011;9059;49.934;8.650;2023-04-24T03:55:45;1.13;;;0.50;;
17866;SDS011;9059;49.934;8.650;2023-04-24T03:56:47;1.20;;;0.50;;
17866;SDS011;9059;49.934;8.650;2023-04-24T03:57:49;0.75;;;0.50;;
17866;SDS011;9059;49.934;8.650;2023-04-24T03:58:55;1.95;;;0.70;;
17866;SDS011;9059;49.934;8.650;2023-04-24T03:59:57;1.63;;;0.50;;
17866;SDS011;9059;49.934;8.650;2023-04-24T04:01:00;0.60;;;0.50;;
17866;SDS011;9059;49.934;8.650;2023-04-24T04:02:01;6.25;;;0.73;;
17866;SDS011;9059;49.934;8.650;2023-04-24T04:03:04;3.42;;;0.70;;
17866;SDS011;9059;49.934;8.650;2023-04-24T04:04:06;1.25;;;0.57;;
17866;SDS011;9059;49.934;8.650;2023-04-24T04:05:10;2.40;;;0.63;;
17866;SDS011;9059;49.934;8.650;2023-04-24T04:06:11;0.90;;;0.60;;
17866;SDS011;9059;49.934;8.650;2023-04-24T04:07:14;1.23;;;0.50;;
17866;SDS011;9059;49.934;8.650;2023-04-24T04:08:16;2.97;;;0.50;;
17866;SDS011;9059;49.934;8.650;2023-04-24T04:09:18;4.13;;;0.60;;
17866;SDS011;9059;49.934;8.650;2023-04-24T04:10:20;0.63;;;0.40;;
17866;SDS011;9059;49.934;8.650;2023-04-24T04:11:23;0.73;;;0.60;;
17866;SDS011;9059;49.934;8.650;2023-04-24T04:12:25;1.30;;;0.60;;
17866;SDS011;9059;49.934;8.650;2023-04-24T04:13:28;3.15;;;0.60;;
17866;SDS011;9059;49.934;8.650;2023-04-24T04:14:31;0.77;;;0.50;;
17866;SDS011;9059;49.934;8.650;2023-04-24T04:15:34;1.77;;;0.80;;
17866;SDS011;9059;49.934;8.650;2023-04-24T04:16:36;1.63;;;0.70;;
17866;SDS011;9059;49.934;8.650;2023-04-24T04:17:40;1.70;;;0.73;;
17866;SDS011;9059;49.934;8.650;2023-04-24T04:18:41;1.60;;;0.70;;
17866;SDS011;9059;49.934;8.650;2023-04-24T04:19:44;0.82;;;0.57;;
17866;SDS011;9059;49.934;8.650;2023-04-24T04:20:46;1.15;;;0.60;;
17866;SDS011;9059;49.934;8.650;2023-04-24T04:21:48;2.85;;;0.70;;
17866;SDS011;9059;49.934;8.650;2023-04-24T04:22:54;2.38;;;0.73;;
17866;SDS011;9059;49.934;8.650;2023-04-24T04:23:57;1.73;;;0.70;;
17866;SDS011;9059;49.934;8.650;2023-04-24T04:24:58;1.42;;;0.70;;
17866;SDS011;9059;49.934;8.650;2023-04-24T04:26:01;1.27;;;0.80;;
17866;SDS011;9059;49.934;8.650;2023-04-24T04:27:03;1.45;;;0.63;;
17866;SDS011;9059;49.934;8.650;2023-04-24T04:28:06;0.70;;;0.60;;
17866;SDS011;9059;49.934;8.650;2023-04-24T04:29:07;0.73;;;0.52;;
17866;SDS011;9059;49.934;8.650;2023-04-24T04:30:12;3.20;;;1.05;;
17866;SDS011;9059;49.934;8.650;2023-04-24T04:31:14;1.55;;;0.63;;
17866;SDS011;9059;49.934;8.650;2023-04-24T04:32:17;1.10;;;0.70;;
17866;SDS011;9059;49.934;8.650;2023-04-24T04:33:19;0.90;;;0.68;;
17866;SDS011;9059;49.934;8.650;2023-04-24T04:34:22;1.35;;;0.65;;
17866;SDS011;9059;49.934;8.650;2023-04-24T04:35:24;0.90;;;0.73;;
17866;SDS011;9059;49.934;8.650;2023-04-24T04:36:27;2.10;;;0.80;;
17866;SDS011;9059;49.934;8.650;2023-04-24T04:37:30;1.73;;;0.85;;
17866;SDS011;9059;49.934;8.650;2023-04-24T04:38:34;1.40;;;0.60;;
17866;SDS011;9059;49.934;8.650;2023-04-24T04:39:36;0.98;;;0.80;;
17866;SDS011;9059;49.934;8.650;2023-04-24T04:40:38;1.77;;;0.77;;
17866;SDS011;9059;49.934;8.650;2023-04-24T04:41:41;3.05;;;0.88;;
17866;SDS011;9059;49.934;8.650;2023-04-24T04:42:44;5.32;;;0.77;;
17866;SDS011;9059;49.934;8.650;2023-04-24T04:43:47;2.70;;;0.70;;
17866;SDS011;9059;49.934;8.650;2023-04-24T04:44:49;2.47;;;0.80;;
17866;SDS011;9059;49.934;8.650;2023-04-24T04:45:53;1.58;;;0.63;;
17866;SDS011;9059;49.934;8.650;2023-04-24T04:46:55;0.95;;;0.68;;
17866;SDS011;9059;49.934;8.650;2023-04-24T04:47:58;1.05;;;0.77;;
17866;SDS011;9059;49.934;8.650;2023-04-24T04:49:01;1.08;;;0.63;;
17866;SDS011;9059;49.934;8.650;2023-04-24T04:50:04;1.83;;;0.80;;
17866;SDS011;9059;49.934;8.650;2023-04-24T04:51:07;3.03;;;0.80;;
17866;SDS011;9059;49.934;8.650;2023-04-24T04:52:09;1.75;;;0.70;;
17866;SDS011;9059;49.934;8.650;2023-04-24T04:53:12;1.63;;;0.80;;
17866;SDS011;9059;49.934;8.650;2023-04-24T04:54:13;3.15;;;0.80;;
17866;SDS011;9059;49.934;8.650;2023-04-24T04:55:17;0.95;;;0.60;;
17866;SDS011;9059;49.934;8.650;2023-04-24T04:56:19;2.05;;;0.70;;
17866;SDS011;9059;49.934;8.650;2023-04-24T04:57:23;0.60;;;0.60;;
17866;SDS011;9059;49.934;8.650;2023-04-24T04:58:24;1.17;;;0.68;;
17866;SDS011;9059;49.934;8.650;2023-04-24T04:59:27;1.17;;;0.80;;
17866;SDS011;9059;49.934;8.650;2023-04-24T05:00:29;3.40;;;0.80;;
17866;SDS011;9059;49.934;8.650;2023-04-24T05:01:38;0.95;;;0.70;;
17866;SDS011;9059;49.934;8.650;2023-04-24T05:02:39;1.27;;;0.80;;
17866;SDS011;9059;49.934;8.650;2023-04-24T05:03:42;3.63;;;0.80;;
17866;SDS011;9059;49.934;8.650;2023-04-24T05:04:44;2.13;;;0.77;;
17866;SDS011;9059;49.934;8.650;2023-04-24T05:05:48;1.95;;;0.70;;
17866;SDS011;9059;49.934;8.650;2023-04-24T05:06:49;1.90;;;0.63;;
17866;SDS011;9059;49.934;8.650;2023-04-24T05:07:53;2.80;;;0.90;;
17866;SDS011;9059;49.934;8.650;2023-04-24T05:08:54;1.42;;;1.00;;
17866;SDS011;9059;49.934;8.650;2023-04-24T05:09:58;2.22;;;1.00;;
17866;SDS011;9059;49.934;8.650;2023-04-24T05:11:00;1.95;;;0.93;;
17866;SDS011;9059;49.934;8.650;2023-04-24T05:12:03;2.05;;;0.95;;
17866;SDS011;9059;49.934;8.650;2023-04-24T05:13:05;1.92;;;0.90;;
17866;SDS011;9059;49.934;8.650;2023-04-24T05:14:07;1.80;;;0.88;;
17866;SDS011;9059;49.934;8.650;2023-04-24T05:15:10;2.17;;;0.90;;
17866;SDS011;9059;49.934;8.650;2023-04-24T05:16:13;1.45;;;0.77;;
17866;SDS011;9059;49.934;8.650;2023-04-24T05:17:16;1.00;;;0.70;;
17866;SDS011;9059;49.934;8.650;2023-04-24T05:18:19;1.83;;;1.05;;
17866;SDS011;9059;49.934;8.650;2023-04-24T05:19:21;2.25;;;1.13;;
17866;SDS011;9059;49.934;8.650;2023-04-24T05:20:23;2.47;;;1.00;;
17866;SDS011;9059;49.934;8.650;2023-04-24T05:21:26;3.97;;;1.00;;
17866;SDS011;9059;49.934;8.650;2023-04-24T05:22:28;1.85;;;0.95;;
17866;SDS011;9059;49.934;8.650;2023-04-24T05:23:30;2.65;;;1.08;;
17866;SDS011;9059;49.934;8.650;2023-04-24T05:24:33;1.58;;;0.93;;
17866;SDS011;9059;49.934;8.650;2023-04-24T05:25:34;1.40;;;0.90;;
17866;SDS011;9059;49.934;8.650;2023-04-24T05:26:37;1.40;;;0.73;;
17866;SDS011;9059;49.934;8.650;2023-04-24T05:27:39;1.13;;;0.80;;
17866;SDS011;9059;49.934;8.650;2023-04-24T05:28:42;1.25;;;0.80;;
17866;SDS011;9059;49.934;8.650;2023-04-24T05:29:44;5.55;;;1.00;;
17866;SDS011;9059;49.934;8.650;2023-04-24T05:30:47;1.80;;;0.80;;
17866;SDS011;9059;49.934;8.650;2023-04-24T05:31:48;1.33;;;0.90;;
17866;SDS011;9059;49.934;8.650;2023-04-24T05:32:52;2.42;;;0.88;;
17866;SDS011;9059;49.934;8.650;2023-04-24T05:33:55;1.13;;;0.82;;
17866;SDS011;9059;49.934;8.650;2023-04-24T05:34:57;1.15;;;0.90;;
17866;SDS011;9059;49.934;8.650;2023-04-24T05:36:00;1.00;;;0.77;;
17866;SDS011;9059;49.934;8.650;2023-04-24T05:37:02;1.50;;;1.08;;
17866;SDS011;9059;49.934;8.650;2023-04-24T05:38:09;1.15;;;0.82;;
17866;SDS011;9059;49.934;8.650;2023-04-24T05:39:11;1.98;;;0.90;;
17866;SDS011;9059;49.934;8.650;2023-04-24T05:40:14;2.75;;;1.17;;
17866;SDS011;9059;49.934;8.650;2023-04-24T05:41:16;0.80;;;0.80;;
17866;SDS011;9059;49.934;8.650;2023-04-24T05:42:18;0.95;;;0.80;;
17866;SDS011;9059;49.934;8.650;2023-04-24T05:43:20;1.30;;;1.00;;
17866;SDS011;9059;49.934;8.650;2023-04-24T05:44:23;1.42;;;0.85;;
17866;SDS011;9059;49.934;8.650;2023-04-24T05:45:25;2.20;;;0.93;;
17866;SDS011;9059;49.934;8.650;2023-04-24T05:46:28;1.77;;;1.02;;
17866;SDS011;9059;49.934;8.650;2023-04-24T05:47:30;1.95;;;1.02;;
17866;SDS011;9059;49.934;8.650;2023-04-24T05:48:34;0.98;;;0.80;;
17866;SDS011;9059;49.934;8.650;2023-04-24T05:49:35;0.95;;;0.80;;
17866;SDS011;9059;49.934;8.650;2023-04-24T05:50:38;1.50;;;1.10;;
17866;SDS011;9059;49.934;8.650;2023-04-24T05:51:41;2.80;;;1.10;;
17866;SDS011;9059;49.934;8.650;2023-04-24T05:52:44;1.80;;;1.00;;
17866;SDS011;9059;49.934;8.650;2023-04-24T05:53:46;1.05;;;0.77;;
17866;SDS011;9059;49.934;8.650;2023-04-24T05:54:49;2.08;;;1.10;;
17866;SDS011;9059;49.934;8.650;2023-04-24T05:55:51;2.30;;;1.02;;
17866;SDS011;9059;49.934;8.650;2023-04-24T05:56:54;1.52;;;1.10;;
17866;SDS011;9059;49.934;8.650;2023-04-24T05:57:56;1.98;;;0.80;;
17866;SDS011;9059;49.934;8.650;2023-04-24T05:58:59;1.20;;;0.90;;
17866;SDS011;9059;49.934;8.650;2023-04-24T06:00:01;1.20;;;0.85;;
17866;SDS011;9059;49.934;8.650;2023-04-24T06:01:05;3.92;;;1.20;;
17866;SDS011;9059;49.934;8.650;2023-04-24T06:02:07;1.80;;;1.05;;
17866;SDS011;9059;49.934;8.650;2023-04-24T06:03:10;1.98;;;1.05;;
17866;SDS011;9059;49.934;8.650;2023-04-24T06:04:14;1.50;;;1.00;;
17866;SDS011;9059;49.934;8.650;2023-04-24T06:05:16;1.20;;;0.95;;
17866;SDS011;9059;49.934;8.650;2023-04-24T06:06:19;1.67;;;1.20;;
17866;SDS011;9059;49.934;8.650;2023-04-24T06:07:21;3.65;;;0.93;;
17866;SDS011;9059;49.934;8.650;2023-04-24T06:08:24;4.07;;;1.23;;
17866;SDS011;9059;49.934;8.650;2023-04-24T06:09:27;2.17;;;0.88;;
17866;SDS011;9059;49.934;8.650;2023-04-24T06:10:29;1.85;;;1.20;;
17866;SDS011;9059;49.934;8.650;2023-04-24T06:11:31;3.90;;;1.10;;
17866;SDS011;9059;49.934;8.650;2023-04-24T06:12:33;4.40;;;1.13;;
17866;SDS011;9059;49.934;8.650;2023-04-24T06:13:36;3.35;;;1.40;;
17866;SDS011;9059;49.934;8.650;2023-04-24T06:14:38;3.38;;;1.10;;
17866;SDS011;9059;49.934;8.650;2023-04-24T06:15:41;1.90;;;1.20;;
17866;SDS011;9059;49.934;8.650;2023-04-24T06:16:43;4.82;;;1.45;;
17866;SDS011;9059;49.934;8.650;2023-04-24T06:17:46;5.40;;;1.25;;
17866;SDS011;9059;49.934;8.650;2023-04-24T06:18:48;1.98;;;1.35;;
17866;SDS011;9059;49.934;8.650;2023-04-24T06:19:53;3.60;;;1.63;;
17866;SDS011;9059;49.934;8.650;2023-04-24T06:20:55;2.55;;;1.40;;
17866;SDS011;9059;49.934;8.650;2023-04-24T06:21:57;3.13;;;1.40;;
17866;SDS011;9059;49.934;8.650;2023-04-24T06:23:00;2.20;;;1.38;;